sensor_id;sensor_type;location;lat;lon;timestamp;temperature;humidity
6752;DHT22;3413;47.680;9.166;2023-04-30T00:00:42;17.80;93.00
6752;DHT22;3413;47.680;9.166;2023-04-30T00:05:44;17.70;93.00
6752;DHT22;3413;47.680;9.166;2023-04-30T00:10:46;17.60;92.90
6752;DHT22;3413;47.680;9.166;2023-04-30T00:15:48;17.50;92.90
6752;DHT22;3413;47.680;9.166;2023-04-30T00:20:50;17.40;92.90
6752;DHT22;3413;47.680;9.166;2023-04-30T00:25:54;17.20;92.80
6752;DHT22;3413;47.680;9.166;2023-04-30T00:30:56;17.10;92.90
6752;DHT22;3413;47.680;9.166;2023-04-30T00:35:58;17.00;92.80
6752;DHT22;3413;47.680;9.166;2023-04-30T00:41:00;17.00;92.80
6752;DHT22;3413;47.680;9.166;2023-04-30T00:46:02;16.80;92.70
6752;DHT22;3413;47.680;9.166;2023-04-30T00:51:06;16.70;92.70
6752;DHT22;3413;47.680;9.166;2023-04-30T00:56:08;16.50;92.60
6752;DHT22;3413;47.680;9.166;2023-04-30T01:01:11;16.60;92.70
6752;DHT22;3413;47.680;9.166;2023-04-30T01:06:13;16.70;92.60
6752;DHT22;3413;47.680;9.166;2023-04-30T01:11:35;16.70;92.60
6752;DHT22;3413;47.680;9.166;2023-04-30T01:16:47;16.80;92.50
6752;DHT22;3413;47.680;9.166;2023-04-30T01:21:52;16.80;92.40
6752;DHT22;3413;47.680;9.166;2023-04-30T01:32:26;16.70;92.50
6752;DHT22;3413;47.680;9.166;2023-04-30T01:38:09;16.60;92.40
6752;DHT22;3413;47.680;9.166;2023-04-30T01:43:29;16.50;92.50
6752;DHT22;3413;47.680;9.166;2023-04-30T01:59:35;16.20;92.40
6752;DHT22;3413;47.680;9.166;2023-04-30T02:04:39;16.00;92.40
6752;DHT22;3413;47.680;9.166;2023-04-30T02:09:41;16.00;92.40
6752;DHT22;3413;47.680;9.166;2023-04-30T02:14:43;16.00;92.40
6752;DHT22;3413;47.680;9.166;2023-04-30T02:19:44;16.00;92.40
6752;DHT22;3413;47.680;9.166;2023-04-30T02:24:46;15.90;92.40
6752;DHT22;3413;47.680;9.166;2023-04-30T02:29:48;15.90;92.50
6752;DHT22;3413;47.680;9.166;2023-04-30T02:34:50;15.80;92.40
6752;DHT22;3413;47.680;9.166;2023-04-30T02:39:53;15.70;92.40
6752;DHT22;3413;47.680;9.166;2023-04-30T02:44:55;15.70;92.40
6752;DHT22;3413;47.680;9.166;2023-04-30T02:49:57;15.70;92.50
6752;DHT22;3413;47.680;9.166;2023-04-30T02:54:59;15.70;92.50
6752;DHT22;3413;47.680;9.166;2023-04-30T03:00:02;15.80;92.50
6752;DHT22;3413;47.680;9.166;2023-04-30T03:05:04;15.80;92.50
6752;DHT22;3413;47.680;9.166;2023-04-30T03:10:06;15.80;92.50
6752;DHT22;3413;47.680;9.166;2023-04-30T03:15:09;15.90;92.60
6752;DHT22;3413;47.680;9.166;2023-04-30T03:20:11;15.90;92.60
6752;DHT22;3413;47.680;9.166;2023-04-30T03:25:13;15.90;92.60
6752;DHT22;3413;47.680;9.166;2023-04-30T03:30:15;15.90;92.60
6752;DHT22;3413;47.680;9.166;2023-04-30T03:35:17;15.90;92.60
6752;DHT22;3413;47.680;9.166;2023-04-30T03:40:19;15.90;92.60
6752;DHT22;3413;47.680;9.166;2023-04-30T03:45:21;15.80;92.60
6752;DHT22;3413;47.680;9.166;2023-04-30T03:50:23;15.90;92.60
6752;DHT22;3413;47.680;9.166;2023-04-30T03:55:25;15.80;92.60
6752;DHT22;3413;47.680;9.166;2023-04-30T04:00:27;15.70;92.60
6752;DHT22;3413;47.680;9.166;2023-04-30T04:05:29;15.70;92.60
6752;DHT22;3413;47.680;9.166;2023-04-30T04:10:32;15.60;92.60
6752;DHT22;3413;47.680;9.166;2023-04-30T04:15:34;15.60;92.60
6752;DHT22;3413;47.680;9.166;2023-04-30T04:20:36;15.50;92.60
6752;DHT22;3413;47.680;9.166;2023-04-30T04:25:38;15.50;92.60
6752;DHT22;3413;47.680;9.166;2023-04-30T04:30:42;15.50;92.60
6752;DHT22;3413;47.680;9.166;2023-04-30T04:35:44;15.40;92.60
6752;DHT22;3413;47.680;9.166;2023-04-30T04:40:53;15.40;92.60
6752;DHT22;3413;47.680;9.166;2023-04-30T04:45:56;15.40;92.70
6752;DHT22;3413;47.680;9.166;2023-04-30T04:50:58;15.40;92.70
6752;DHT22;3413;47.680;9.166;2023-04-30T04:56:00;15.40;92.60
6752;DHT22;3413;47.680;9.166;2023-04-30T05:01:02;15.40;92.60
6752;DHT22;3413;47.680;9.166;2023-04-30T05:06:06;15.40;92.70
6752;DHT22;3413;47.680;9.166;2023-04-30T05:11:08;15.40;92.70
6752;DHT22;3413;47.680;9.166;2023-04-30T05:16:10;15.40;92.70
6752;DHT22;3413;47.680;9.166;2023-04-30T05:21:13;15.40;92.70
6752;DHT22;3413;47.680;9.166;2023-04-30T05:26:15;15.40;92.80
6752;DHT22;3413;47.680;9.166;2023-04-30T05:31:17;15.40;92.80
6752;DHT22;3413;47.680;9.166;2023-04-30T05:36:22;15.50;92.80
6752;DHT22;3413;47.680;9.166;2023-04-30T05:41:24;15.50;92.80
6752;DHT22;3413;47.680;9.166;2023-04-30T05:46:26;15.50;92.80
6752;DHT22;3413;47.680;9.166;2023-04-30T05:51:29;15.60;92.90
6752;DHT22;3413;47.680;9.166;2023-04-30T05:56:31;15.60;92.90
6752;DHT22;3413;47.680;9.166;2023-04-30T06:01:34;15.70;92.90
6752;DHT22;3413;47.680;9.166;2023-04-30T06:06:36;15.70;92.90
6752;DHT22;3413;47.680;9.166;2023-04-30T06:11:38;15.60;92.80
6752;DHT22;3413;47.680;9.166;2023-04-30T06:16:44;15.60;93.00
6752;DHT22;3413;47.680;9.166;2023-04-30T06:21:46;15.60;92.90
6752;DHT22;3413;47.680;9.166;2023-04-30T06:26:48;15.60;92.80
6752;DHT22;3413;47.680;9.166;2023-04-30T06:31:50;15.50;92.90
6752;DHT22;3413;47.680;9.166;2023-04-30T06:36:53;15.50;93.00
6752;DHT22;3413;47.680;9.166;2023-04-30T06:41:55;15.50;93.00
6752;DHT22;3413;47.680;9.166;2023-04-30T06:46:57;15.60;93.10
6752;DHT22;3413;47.680;9.166;2023-04-30T06:51:59;15.70;93.20
6752;DHT22;3413;47.680;9.166;2023-04-30T06:57:02;15.80;93.30
6752;DHT22;3413;47.680;9.166;2023-04-30T07:02:04;15.90;93.30
6752;DHT22;3413;47.680;9.166;2023-04-30T07:07:09;16.10;93.30
6752;DHT22;3413;47.680;9.166;2023-04-30T07:12:11;16.20;93.50
6752;DHT22;3413;47.680;9.166;2023-04-30T07:17:14;16.20;93.40
6752;DHT22;3413;47.680;9.166;2023-04-30T07:22:16;16.30;93.50
6752;DHT22;3413;47.680;9.166;2023-04-30T07:27:18;16.40;93.60
6752;DHT22;3413;47.680;9.166;2023-04-30T07:32:21;16.50;93.60
6752;DHT22;3413;47.680;9.166;2023-04-30T07:37:23;16.50;93.70
6752;DHT22;3413;47.680;9.166;2023-04-30T07:42:25;16.60;93.80
6752;DHT22;3413;47.680;9.166;2023-04-30T07:47:27;16.80;93.90
6752;DHT22;3413;47.680;9.166;2023-04-30T07:52:29;16.90;93.90
6752;DHT22;3413;47.680;9.166;2023-04-30T07:57:31;17.10;93.90
6752;DHT22;3413;47.680;9.166;2023-04-30T08:02:33;17.30;94.00
6752;DHT22;3413;47.680;9.166;2023-04-30T08:07:35;17.50;94.10
6752;DHT22;3413;47.680;9.166;2023-04-30T08:12:38;17.70;94.20
6752;DHT22;3413;47.680;9.166;2023-04-30T08:17:40;17.80;94.20
6752;DHT22;3413;47.680;9.166;2023-04-30T08:22:45;18.00;94.30
6752;DHT22;3413;47.680;9.166;2023-04-30T08:27:47;18.10;94.30
6752;DHT22;3413;47.680;9.166;2023-04-30T08:32:50;18.40;94.40
6752;DHT22;3413;47.680;9.166;2023-04-30T08:37:58;18.60;94.50
6752;DHT22;3413;47.680;9.166;2023-04-30T08:43:07;18.80;94.60
6752;DHT22;3413;47.680;9.166;2023-04-30T08:48:17;19.00;94.70
6752;DHT22;3413;47.680;9.166;2023-04-30T08:53:20;19.20;94.70
6752;DHT22;3413;47.680;9.166;2023-04-30T08:58:25;19.30;94.70
6752;DHT22;3413;47.680;9.166;2023-04-30T09:03:30;19.50;94.70
6752;DHT22;3413;47.680;9.166;2023-04-30T09:08:45;19.60;94.80
6752;DHT22;3413;47.680;9.166;2023-04-30T09:13:49;19.70;94.80
6752;DHT22;3413;47.680;9.166;2023-04-30T09:18:53;19.90;94.90
6752;DHT22;3413;47.680;9.166;2023-04-30T09:23:56;20.10;95.00
6752;DHT22;3413;47.680;9.166;2023-04-30T09:28:59;20.30;95.00
6752;DHT22;3413;47.680;9.166;2023-04-30T09:34:02;20.40;95.00
6752;DHT22;3413;47.680;9.166;2023-04-30T09:39:11;20.50;95.00
6752;DHT22;3413;47.680;9.166;2023-04-30T09:44:30;20.60;95.00
6752;DHT22;3413;47.680;9.166;2023-04-30T09:49:36;20.70;94.90
6752;DHT22;3413;47.680;9.166;2023-04-30T09:54:39;20.80;94.90
6752;DHT22;3413;47.680;9.166;2023-04-30T09:59:46;21.00;95.00
6752;DHT22;3413;47.680;9.166;2023-04-30T10:04:58;21.10;95.00
6752;DHT22;3413;47.680;9.166;2023-04-30T10:15:19;21.30;95.00
6752;DHT22;3413;47.680;9.166;2023-04-30T10:20:26;21.40;94.80
6752;DHT22;3413;47.680;9.166;2023-04-30T10:25:29;21.30;94.80
6752;DHT22;3413;47.680;9.166;2023-04-30T10:30:31;21.20;94.60
6752;DHT22;3413;47.680;9.166;2023-04-30T10:35:50;21.20;94.60
6752;DHT22;3413;47.680;9.166;2023-04-30T10:41:01;21.20;94.60
6752;DHT22;3413;47.680;9.166;2023-04-30T10:46:04;21.20;94.50
6752;DHT22;3413;47.680;9.166;2023-04-30T10:51:07;21.10;94.40
6752;DHT22;3413;47.680;9.166;2023-04-30T10:56:09;21.20;94.70
6752;DHT22;3413;47.680;9.166;2023-04-30T11:01:14;21.20;94.40
6752;DHT22;3413;47.680;9.166;2023-04-30T11:06:18;21.30;94.30
6752;DHT22;3413;47.680;9.166;2023-04-30T11:11:24;21.30;94.20
6752;DHT22;3413;47.680;9.166;2023-04-30T11:16:29;21.40;94.30
6752;DHT22;3413;47.680;9.166;2023-04-30T11:21:32;21.40;94.20
6752;DHT22;3413;47.680;9.166;2023-04-30T11:27:06;21.50;94.30
6752;DHT22;3413;47.680;9.166;2023-04-30T11:32:09;21.70;94.30
6752;DHT22;3413;47.680;9.166;2023-04-30T11:37:14;21.60;94.20
6752;DHT22;3413;47.680;9.166;2023-04-30T11:42:17;21.60;94.10
6752;DHT22;3413;47.680;9.166;2023-04-30T11:47:20;21.70;94.10
6752;DHT22;3413;47.680;9.166;2023-04-30T11:52:24;21.70;94.10
6752;DHT22;3413;47.680;9.166;2023-04-30T11:57:34;21.80;94.10
6752;DHT22;3413;47.680;9.166;2023-04-30T12:02:36;21.80;94.00
6752;DHT22;3413;47.680;9.166;2023-04-30T12:07:38;21.90;94.10
6752;DHT22;3413;47.680;9.166;2023-04-30T12:12:42;22.00;94.10
6752;DHT22;3413;47.680;9.166;2023-04-30T12:17:45;22.30;94.30
6752;DHT22;3413;47.680;9.166;2023-04-30T12:22:48;22.50;94.30
6752;DHT22;3413;47.680;9.166;2023-04-30T12:27:53;22.70;94.30
6752;DHT22;3413;47.680;9.166;2023-04-30T12:32:59;22.80;94.30
6752;DHT22;3413;47.680;9.166;2023-04-30T12:38:04;22.90;94.20
6752;DHT22;3413;47.680;9.166;2023-04-30T12:43:07;22.90;94.10
6752;DHT22;3413;47.680;9.166;2023-04-30T12:48:10;22.90;94.10
6752;DHT22;3413;47.680;9.166;2023-04-30T12:53:12;22.90;94.10
6752;DHT22;3413;47.680;9.166;2023-04-30T12:58:13;22.90;94.00
6752;DHT22;3413;47.680;9.166;2023-04-30T13:03:19;22.90;94.00
6752;DHT22;3413;47.680;9.166;2023-04-30T13:08:24;22.90;93.90
6752;DHT22;3413;47.680;9.166;2023-04-30T13:13:26;23.00;93.90
6752;DHT22;3413;47.680;9.166;2023-04-30T13:18:27;23.00;93.80
6752;DHT22;3413;47.680;9.166;2023-04-30T13:23:29;22.90;93.70
6752;DHT22;3413;47.680;9.166;2023-04-30T13:28:42;22.90;93.60
6752;DHT22;3413;47.680;9.166;2023-04-30T13:33:44;22.70;93.50
6752;DHT22;3413;47.680;9.166;2023-04-30T13:38:46;22.60;93.40
6752;DHT22;3413;47.680;9.166;2023-04-30T13:43:48;22.70;93.50
6752;DHT22;3413;47.680;9.166;2023-04-30T13:48:50;22.70;93.40
6752;DHT22;3413;47.680;9.166;2023-04-30T13:53:53;22.70;93.30
6752;DHT22;3413;47.680;9.166;2023-04-30T13:58:56;22.70;93.20
6752;DHT22;3413;47.680;9.166;2023-04-30T14:03:58;22.70;93.20
6752;DHT22;3413;47.680;9.166;2023-04-30T14:09:00;22.80;93.20
6752;DHT22;3413;47.680;9.166;2023-04-30T14:14:02;22.60;93.10
6752;DHT22;3413;47.680;9.166;2023-04-30T14:19:04;22.60;93.10
6752;DHT22;3413;47.680;9.166;2023-04-30T14:24:07;22.50;93.00
6752;DHT22;3413;47.680;9.166;2023-04-30T14:29:09;22.40;92.90
6752;DHT22;3413;47.680;9.166;2023-04-30T14:34:11;22.40;92.90
6752;DHT22;3413;47.680;9.166;2023-04-30T14:39:14;22.30;92.80
6752;DHT22;3413;47.680;9.166;2023-04-30T14:44:16;22.20;92.70
6752;DHT22;3413;47.680;9.166;2023-04-30T14:49:18;22.20;92.70
6752;DHT22;3413;47.680;9.166;2023-04-30T14:54:20;22.20;92.60
6752;DHT22;3413;47.680;9.166;2023-04-30T14:59:22;22.10;92.50
6752;DHT22;3413;47.680;9.166;2023-04-30T15:04:24;22.00;92.50
6752;DHT22;3413;47.680;9.166;2023-04-30T15:09:26;22.00;92.50
6752;DHT22;3413;47.680;9.166;2023-04-30T15:14:28;21.90;92.40
6752;DHT22;3413;47.680;9.166;2023-04-30T15:19:30;21.90;92.30
6752;DHT22;3413;47.680;9.166;2023-04-30T15:24:32;21.80;92.30
6752;DHT22;3413;47.680;9.166;2023-04-30T15:29:35;21.70;92.30
6752;DHT22;3413;47.680;9.166;2023-04-30T15:34:37;21.70;92.20
6752;DHT22;3413;47.680;9.166;2023-04-30T15:39:39;21.70;92.20
6752;DHT22;3413;47.680;9.166;2023-04-30T15:44:41;21.60;92.10
6752;DHT22;3413;47.680;9.166;2023-04-30T15:49:43;21.50;92.00
6752;DHT22;3413;47.680;9.166;2023-04-30T15:54:45;21.50;92.00
6752;DHT22;3413;47.680;9.166;2023-04-30T15:59:46;21.40;92.00
6752;DHT22;3413;47.680;9.166;2023-04-30T16:04:48;21.30;91.90
6752;DHT22;3413;47.680;9.166;2023-04-30T16:09:50;21.30;91.80
6752;DHT22;3413;47.680;9.166;2023-04-30T16:14:52;21.30;91.90
6752;DHT22;3413;47.680;9.166;2023-04-30T16:19:55;21.30;91.80
6752;DHT22;3413;47.680;9.166;2023-04-30T16:24:57;21.20;91.70
6752;DHT22;3413;47.680;9.166;2023-04-30T16:29:59;21.20;91.70
6752;DHT22;3413;47.680;9.166;2023-04-30T16:35:01;21.10;91.70
6752;DHT22;3413;47.680;9.166;2023-04-30T16:40:04;21.10;91.60
6752;DHT22;3413;47.680;9.166;2023-04-30T16:45:08;21.10;91.60
6752;DHT22;3413;47.680;9.166;2023-04-30T16:50:10;21.10;91.70
6752;DHT22;3413;47.680;9.166;2023-04-30T16:55:12;21.10;91.60
6752;DHT22;3413;47.680;9.166;2023-04-30T17:00:14;21.10;91.60
6752;DHT22;3413;47.680;9.166;2023-04-30T17:05:19;21.10;91.60
6752;DHT22;3413;47.680;9.166;2023-04-30T17:10:21;21.10;91.50
6752;DHT22;3413;47.680;9.166;2023-04-30T17:15:24;21.00;91.50
6752;DHT22;3413;47.680;9.166;2023-04-30T17:20:26;21.00;91.50
6752;DHT22;3413;47.680;9.166;2023-04-30T17:25:28;21.00;91.50
6752;DHT22;3413;47.680;9.166;2023-04-30T17:30:32;20.90;91.50
6752;DHT22;3413;47.680;9.166;2023-04-30T17:35:34;20.90;91.50
6752;DHT22;3413;47.680;9.166;2023-04-30T17:40:36;20.90;91.40
6752;DHT22;3413;47.680;9.166;2023-04-30T17:45:38;20.80;91.40
6752;DHT22;3413;47.680;9.166;2023-04-30T17:50:40;20.60;91.40
6752;DHT22;3413;47.680;9.166;2023-04-30T17:55:43;20.60;91.30
6752;DHT22;3413;47.680;9.166;2023-04-30T18:00:45;20.70;91.30
6752;DHT22;3413;47.680;9.166;2023-04-30T18:05:50;20.60;91.30
6752;DHT22;3413;47.680;9.166;2023-04-30T18:10:52;20.50;91.30
6752;DHT22;3413;47.680;9.166;2023-04-30T18:15:55;20.50;91.20
6752;DHT22;3413;47.680;9.166;2023-04-30T18:20:58;20.40;91.20
6752;DHT22;3413;47.680;9.166;2023-04-30T18:26:00;20.40;91.20
6752;DHT22;3413;47.680;9.166;2023-04-30T18:31:03;20.40;91.20
6752;DHT22;3413;47.680;9.166;2023-04-30T18:36:05;20.30;91.10
6752;DHT22;3413;47.680;9.166;2023-04-30T18:41:08;20.20;91.10
6752;DHT22;3413;47.680;9.166;2023-04-30T18:46:10;20.20;91.10
6752;DHT22;3413;47.680;9.166;2023-04-30T18:51:12;20.20;91.10
6752;DHT22;3413;47.680;9.166;2023-04-30T18:56:14;20.20;91.00
6752;DHT22;3413;47.680;9.166;2023-04-30T19:01:16;20.10;91.00
6752;DHT22;3413;47.680;9.166;2023-04-30T19:06:22;20.00;91.00
6752;DHT22;3413;47.680;9.166;2023-04-30T19:11:24;19.90;91.00
6752;DHT22;3413;47.680;9.166;2023-04-30T19:16:26;19.80;90.90
6752;DHT22;3413;47.680;9.166;2023-04-30T19:21:28;19.80;90.90
6752;DHT22;3413;47.680;9.166;2023-04-30T19:26:31;19.80;90.90
6752;DHT22;3413;47.680;9.166;2023-04-30T19:31:33;19.80;90.80
6752;DHT22;3413;47.680;9.166;2023-04-30T19:36:36;19.80;90.80
6752;DHT22;3413;47.680;9.166;2023-04-30T19:41:38;19.70;90.70
6752;DHT22;3413;47.680;9.166;2023-04-30T19:46:40;19.70;90.70
6752;DHT22;3413;47.680;9.166;2023-04-30T19:51:43;19.70;90.80
6752;DHT22;3413;47.680;9.166;2023-04-30T19:56:45;19.60;90.70
6752;DHT22;3413;47.680;9.166;2023-04-30T20:01:47;19.50;90.70
6752;DHT22;3413;47.680;9.166;2023-04-30T20:06:49;19.40;90.60
6752;DHT22;3413;47.680;9.166;2023-04-30T20:11:58;19.40;90.70
6752;DHT22;3413;47.680;9.166;2023-04-30T20:17:00;19.40;90.60
6752;DHT22;3413;47.680;9.166;2023-04-30T20:22:03;19.30;90.60
6752;DHT22;3413;47.680;9.166;2023-04-30T20:27:05;19.40;90.60
6752;DHT22;3413;47.680;9.166;2023-04-30T20:32:08;19.40;90.60
6752;DHT22;3413;47.680;9.166;2023-04-30T20:37:10;19.30;90.60
6752;DHT22;3413;47.680;9.166;2023-04-30T20:42:12;19.20;90.50
6752;DHT22;3413;47.680;9.166;2023-04-30T20:47:14;19.10;90.50
6752;DHT22;3413;47.680;9.166;2023-04-30T20:52:16;19.00;90.40
6752;DHT22;3413;47.680;9.166;2023-04-30T20:57:19;19.00;90.40
6752;DHT22;3413;47.680;9.166;2023-04-30T21:02:21;18.80;90.40
6752;DHT22;3413;47.680;9.166;2023-04-30T21:07:23;18.90;90.30
6752;DHT22;3413;47.680;9.166;2023-04-30T21:12:29;19.00;90.40
6752;DHT22;3413;47.680;9.166;2023-04-30T21:17:31;18.90;90.30
6752;DHT22;3413;47.680;9.166;2023-04-30T21:22:33;18.80;90.20
6752;DHT22;3413;47.680;9.166;2023-04-30T21:27:35;18.70;90.30
6752;DHT22;3413;47.680;9.166;2023-04-30T21:32:37;18.70;90.30
6752;DHT22;3413;47.680;9.166;2023-04-30T21:37:40;18.70;90.30
6752;DHT22;3413;47.680;9.166;2023-04-30T21:42:42;18.80;90.30
6752;DHT22;3413;47.680;9.166;2023-04-30T21:47:46;18.70;90.20
6752;DHT22;3413;47.680;9.166;2023-04-30T21:52:49;18.70;90.20
6752;DHT22;3413;47.680;9.166;2023-04-30T21:57:54;18.60;90.30
6752;DHT22;3413;47.680;9.166;2023-04-30T22:02:56;18.60;90.20
6752;DHT22;3413;47.680;9.166;2023-04-30T22:07:59;18.60;90.20
6752;DHT22;3413;47.680;9.166;2023-04-30T22:13:01;18.70;90.20
6752;DHT22;3413;47.680;9.166;2023-04-30T22:18:03;18.70;90.20
6752;DHT22;3413;47.680;9.166;2023-04-30T22:23:05;18.70;90.20
6752;DHT22;3413;47.680;9.166;2023-04-30T22:28:07;18.70;90.50
6752;DHT22;3413;47.680;9.166;2023-04-30T22:33:11;18.70;90.20
6752;DHT22;3413;47.680;9.166;2023-04-30T22:38:13;18.70;90.20
6752;DHT22;3413;47.680;9.166;2023-04-30T22:43:15;18.60;90.20
6752;DHT22;3413;47.680;9.166;2023-04-30T22:48:17;18.60;90.20
6752;DHT22;3413;47.680;9.166;2023-04-30T22:53:19;18.50;90.20
6752;DHT22;3413;47.680;9.166;2023-04-30T22:58:21;18.60;90.20
6752;DHT22;3413;47.680;9.166;2023-04-30T23:03:23;18.60;90.10
6752;DHT22;3413;47.680;9.166;2023-04-30T23:08:25;18.70;90.20
6752;DHT22;3413;47.680;9.166;2023-04-30T23:13:27;18.60;90.10
6752;DHT22;3413;47.680;9.166;2023-04-30T23:18:29;18.50;90.10
6752;DHT22;3413;47.680;9.166;2023-04-30T23:23:32;18.50;90.20
6752;DHT22;3413;47.680;9.166;2023-04-30T23:28:35;18.30;90.10
6752;DHT22;3413;47.680;9.166;2023-04-30T23:33:38;18.10;90.10
6752;DHT22;3413;47.680;9.166;2023-04-30T23:38:40;18.00;90.10
6752;DHT22;3413;47.680;9.166;2023-04-30T23:43:43;17.90;90.10
6752;DHT22;3413;47.680;9.166;2023-04-30T23:48:48;18.00;90.10
6752;DHT22;3413;47.680;9.166;2023-04-30T23:53:50;18.00;90.10
6752;DHT22;3413;47.680;9.166;2023-04-30T23:58:52;18.00;90.00
